Terminal Aerodrome Forecast
Issued by NWS Lake Charles, LA

Home | Current Version | Previous Version | Text Only | Print | Product List | Glossary On
Versions: 1 2 3 4 5 6 7 8 9 10 11 12 13 14 15 16 17 18
000
FTUS44 KLCH 170538
TAFAEX
TAF
KAEX 170538Z 1706/1806 15007KT 6SM BR VCSH BKN014 OVC028
      TEMPO 1706/1710 2SM BR SCT014 OVC028
     FM171400 15005KT P6SM VCSH OVC014
     FM171700 20006KT 6SM HZ VCSH OVC020=

USA.gov is the U.S. government's official web portal to all federal, state and local government web resources and services.